Time;durP1;ratioP1;P1;durP2;ratioP2;P2;SDS_P1;SDS_P2;PMS_P1;PMS_P2;Temp;Humidity;BMP_temperature;BMP_pressure;BME280_temperature;BME280_humidity;BME280_pressure;Samples;Min_cycle;Max_cycle;Signal;HPM_P1;HPM_P2
2022/06/25 00:01:11;;;;;;;20.40;14.15;;;;;;;13.62;100.00;100712.56;10488852;28;20543;-79
2022/06/25 00:06:12;;;;;;;31.40;14.85;;;;;;;13.62;100.00;100716.09;10511789;28;20040;-79
2022/06/25 00:12:31;;;;;;;24.35;15.07;;;;;;;13.53;100.00;100715.81;10470130;28;20411;-79
2022/06/25 00:16:34;;;;;;;24.23;15.02;;;;;;;13.54;100.00;100719.31;10473154;28;20041;-79
2022/06/25 00:21:34;;;;;;;22.63;16.75;;;;;;;13.43;100.00;100722.47;10502567;28;20044;-79
2022/06/25 00:26:35;;;;;;;30.65;16.88;;;;;;;13.46;100.00;100722.56;10509441;28;20118;-80
2022/06/25 00:31:36;;;;;;;42.50;17.58;;;;;;;13.46;100.00;100727.81;10511927;28;20119;-79
2022/06/25 00:36:37;;;;;;;18.45;11.73;;;;;;;13.47;100.00;100732.25;10487066;28;20044;-79
2022/06/25 00:41:37;;;;;;;26.10;14.75;;;;;;;13.46;100.00;100729.59;10501400;28;20580;-79
2022/06/25 00:46:38;;;;;;;23.30;15.25;;;;;;;13.52;100.00;100729.78;10528241;28;20421;-79
2022/06/25 00:51:39;;;;;;;21.02;14.95;;;;;;;13.52;100.00;100732.41;10510518;28;20085;-79
2022/06/25 00:56:43;;;;;;;24.85;15.05;;;;;;;13.48;100.00;100733.16;10468249;28;20536;-80
2022/06/25 01:01:44;;;;;;;23.02;15.07;;;;;;;13.48;100.00;100752.44;10485334;28;20068;-80
2022/06/25 01:06:45;;;;;;;22.45;14.50;;;;;;;13.51;100.00;100749.03;10486114;28;20141;-80
2022/06/25 01:11:45;;;;;;;23.52;14.30;;;;;;;13.43;100.00;100756.66;10484594;28;20031;-79
2022/06/25 01:16:46;;;;;;;28.27;15.38;;;;;;;13.44;100.00;100768.06;10525588;28;20114;-79
2022/06/25 01:21:46;;;;;;;15.82;11.65;;;;;;;13.42;100.00;100773.25;10507842;28;20047;-80
2022/06/25 01:26:47;;;;;;;69.25;20.88;;;;;;;13.43;100.00;100782.94;10525210;28;20111;-79
2022/06/25 01:31:47;;;;;;;20.75;14.93;;;;;;;13.37;100.00;100782.69;10510214;28;20060;-79
2022/06/25 01:36:48;;;;;;;19.30;14.25;;;;;;;13.37;100.00;100780.06;10456739;28;20115;-79
2022/06/25 01:41:48;;;;;;;25.80;15.98;;;;;;;13.44;100.00;100786.47;10453347;28;20036;-79
2022/06/25 01:46:49;;;;;;;24.58;15.18;;;;;;;13.38;100.00;100791.47;10465908;28;20036;-79
2022/06/25 01:51:50;;;;;;;22.25;14.00;;;;;;;13.34;100.00;100800.97;10432179;28;20033;-79
2022/06/25 01:56:50;;;;;;;22.92;15.23;;;;;;;13.33;100.00;100796.56;10447827;28;20186;-79
2022/06/25 02:01:51;;;;;;;27.73;15.27;;;;;;;13.27;100.00;100809.50;10441689;28;20037;-79
2022/06/25 02:06:55;;;;;;;63.70;20.88;;;;;;;13.28;100.00;100808.66;10459906;28;20037;-79
2022/06/25 02:11:56;;;;;;;25.17;13.60;;;;;;;13.21;100.00;100811.06;10401560;28;20087;-79
2022/06/25 02:16:56;;;;;;;23.40;16.20;;;;;;;13.26;100.00;100816.50;10432299;28;20141;-78
2022/06/25 02:21:57;;;;;;;22.70;15.52;;;;;;;13.28;100.00;100819.16;10449450;28;20093;-77
2022/06/25 02:26:57;;;;;;;22.58;14.77;;;;;;;13.21;100.00;100820.69;10409469;28;20121;-79
2022/06/25 02:31:59;;;;;;;24.45;17.15;;;;;;;13.18;100.00;100821.47;10405765;28;20356;-78
2022/06/25 02:36:59;;;;;;;28.48;17.13;;;;;;;13.12;100.00;100818.59;10485737;28;20131;-78
2022/06/25 02:42:00;;;;;;;27.40;16.70;;;;;;;13.11;100.00;100835.22;10522044;28;20036;-79
2022/06/25 02:47:00;;;;;;;25.63;17.25;;;;;;;13.14;100.00;100837.94;10479694;28;20508;-78
2022/06/25 02:52:01;;;;;;;25.98;15.77;;;;;;;13.07;100.00;100842.09;10506696;28;20054;-78
2022/06/25 03:02:22;;;;;;;27.48;18.00;;;;;;;12.98;100.00;100853.97;10452890;28;20055;-79
2022/06/25 03:07:22;;;;;;;27.95;17.48;;;;;;;12.96;100.00;100860.91;10507099;28;20105;-78
2022/06/25 03:12:23;;;;;;;25.88;18.45;;;;;;;12.88;100.00;100863.25;10524684;28;20047;-77
2022/06/25 03:17:23;;;;;;;31.85;20.85;;;;;;;12.76;100.00;100861.03;10493611;28;20101;-77
2022/06/25 03:22:24;;;;;;;26.85;18.95;;;;;;;12.74;100.00;100857.47;10522804;28;20488;-78
2022/06/25 03:27:24;;;;;;;25.30;18.45;;;;;;;12.69;100.00;100856.38;10472082;28;20049;-78
2022/06/25 03:32:25;;;;;;;26.73;18.02;;;;;;;12.74;100.00;100860.09;10479488;28;20414;-79
2022/06/25 03:37:26;;;;;;;27.00;18.38;;;;;;;12.75;100.00;100861.88;10530203;28;20171;-79
2022/06/25 03:42:26;;;;;;;29.60;20.35;;;;;;;12.80;100.00;100862.94;10516592;28;20042;-78
2022/06/25 03:47:27;;;;;;;32.13;21.10;;;;;;;12.81;100.00;100866.50;10510604;28;20056;-79
2022/06/25 03:52:27;;;;;;;36.90;20.42;;;;;;;12.90;100.00;100869.47;10452931;28;20842;-78
2022/06/25 03:57:28;;;;;;;32.42;19.73;;;;;;;12.94;100.00;100866.13;10470936;28;20071;-78
2022/06/25 04:02:28;;;;;;;34.95;20.08;;;;;;;13.01;100.00;100872.50;10480721;28;20033;-79
2022/06/25 04:07:29;;;;;;;31.73;20.23;;;;;;;13.09;100.00;100872.78;10445100;28;20116;-79
2022/06/25 04:12:29;;;;;;;32.60;19.90;;;;;;;13.17;100.00;100877.47;10428360;28;20045;-78
2022/06/25 04:17:30;;;;;;;28.85;19.35;;;;;;;13.29;100.00;100879.69;10446961;28;20120;-78
2022/06/25 04:22:30;;;;;;;35.25;20.33;;;;;;;13.40;100.00;100885.31;10452875;28;20041;-78
2022/06/25 04:32:50;;;;;;;26.98;18.67;;;;;;;14.19;100.00;100893.34;10519846;28;20457;-79
2022/06/25 04:37:51;;;;;;;29.75;20.25;;;;;;;14.56;100.00;100896.25;10488215;28;20137;-78
2022/06/25 04:42:51;;;;;;;28.48;19.20;;;;;;;14.74;100.00;100905.63;10506924;28;20397;-78
2022/06/25 04:47:52;;;;;;;26.92;18.08;;;;;;;15.11;100.00;100894.47;10483470;28;20036;-78
2022/06/25 04:52:52;;;;;;;25.13;18.85;;;;;;;15.25;100.00;100901.91;10469146;28;20396;-76
2022/06/25 04:57:53;;;;;;;21.95;16.48;;;;;;;15.45;100.00;100901.56;10523325;28;20090;-76
2022/06/25 05:02:53;;;;;;;19.30;13.68;;;;;;;15.85;100.00;100910.56;10480746;28;20426;-76
2022/06/25 05:07:54;;;;;;;15.40;10.90;;;;;;;16.48;100.00;100913.97;10486662;28;20089;-77
2022/06/25 05:13:12;;;;;;;15.00;11.05;;;;;;;16.97;100.00;100918.63;10500394;28;20044;-78
2022/06/25 05:18:15;;;;;;;11.40;9.70;;;;;;;17.96;100.00;100912.66;10487400;28;20041;-76
2022/06/25 05:23:15;;;;;;;;;;;;;;;18.40;100.00;100916.06;10477326;28;20131;-76
2022/06/25 05:28:16;;;;;;;8.10;5.38;;;;;;;18.90;100.00;100925.66;10454808;28;19932;-77
2022/06/25 05:33:17;;;;;;;5.32;4.10;;;;;;;19.91;100.00;100933.13;10417436;28;20071;-75
2022/06/25 05:38:18;;;;;;;7.07;2.80;;;;;;;20.77;96.59;100932.06;10435693;28;20512;-79
2022/06/25 05:43:18;;;;;;;3.57;2.33;;;;;;;20.76;81.00;100940.91;10440221;28;20036;-76
2022/06/25 05:48:19;;;;;;;6.07;4.10;;;;;;;19.67;86.21;100937.28;10453950;28;20115;-79
2022/06/25 05:53:20;;;;;;;7.57;3.37;;;;;;;19.08;92.35;100933.03;10456667;28;20079;-78
2022/06/25 05:58:22;;;;;;;11.63;3.72;;;;;;;19.70;87.02;100944.41;10443383;28;20513;-77
2022/06/25 06:03:22;;;;;;;28.08;19.85;;;;;;;21.11;79.18;100944.72;10466253;28;20124;-77
2022/06/25 06:08:23;;;;;;;11.17;3.87;;;;;;;22.86;70.34;100947.72;10442603;28;20036;-78
2022/06/25 06:13:23;;;;;;;5.00;2.97;;;;;;;24.03;62.18;100945.47;10466398;28;20136;-77
2022/06/25 06:18:24;;;;;;;4.67;2.43;;;;;;;24.30;62.52;100951.50;10483799;28;20121;-77
2022/06/25 06:23:24;;;;;;;6.47;2.97;;;;;;;24.41;61.03;100948.75;10456001;28;20049;-78
2022/06/25 06:28:25;;;;;;;5.40;2.17;;;;;;;25.41;59.93;100939.72;10440720;28;20086;-77
2022/06/25 06:33:25;;;;;;;4.23;1.60;;;;;;;24.87;57.91;100954.63;10448109;28;20135;-78
2022/06/25 06:38:26;;;;;;;2.90;1.40;;;;;;;24.05;61.62;100950.81;10483581;28;20028;-78
2022/06/25 06:43:26;;;;;;;3.77;2.03;;;;;;;24.76;57.88;100958.28;10458379;28;20101;-77
2022/06/25 06:48:27;;;;;;;3.30;1.63;;;;;;;26.20;56.06;100952.03;10448829;28;20033;-78
2022/06/25 06:53:27;;;;;;;4.00;1.83;;;;;;;27.02;48.95;100952.41;10447543;28;20091;-78
2022/06/25 06:58:29;;;;;;;;;;;;;;;27.77;50.37;100958.03;10460808;28;20120;-78
2022/06/25 07:03:30;;;;;;;4.38;1.95;;;;;;;26.98;50.14;100967.72;10426524;28;20275;-78
2022/06/25 07:08:30;;;;;;;3.87;1.60;;;;;;;24.02;58.33;100972.22;10416414;28;20042;-78
2022/06/25 07:13:31;;;;;;;6.93;1.60;;;;;;;22.56;62.17;100981.53;10490931;28;20403;-79
2022/06/25 07:18:31;;;;;;;6.33;2.00;;;;;;;21.43;63.43;100978.59;10455006;28;21454;-77
2022/06/25 07:23:32;;;;;;;7.93;1.93;;;;;;;20.68;71.90;100990.50;10472169;28;20044;-78
2022/06/25 07:28:32;;;;;;;3.93;1.67;;;;;;;20.32;70.65;100984.91;10489920;28;20043;-78
2022/06/25 07:33:34;;;;;;;5.95;1.83;;;;;;;20.40;70.77;100998.25;10488030;28;20039;-78
2022/06/25 07:38:34;;;;;;;9.00;3.03;;;;;;;20.81;69.35;100992.41;10471268;28;20082;-78
2022/06/25 07:43:35;;;;;;;4.47;1.67;;;;;;;21.35;68.29;100985.66;10489056;28;20147;-78
2022/06/25 07:48:35;;;;;;;3.93;1.70;;;;;;;21.48;65.38;100997.22;10489637;28;20089;-78
2022/06/25 07:53:36;;;;;;;2.90;1.97;;;;;;;21.97;64.27;100992.09;10488574;28;20044;-78
2022/06/25 07:58:36;;;;;;;5.30;1.40;;;;;;;22.35;62.13;100985.06;10487942;28;20408;-78
2022/06/25 08:03:37;;;;;;;4.93;1.87;;;;;;;22.63;61.05;100986.88;10470993;28;20119;-78
2022/06/25 08:08:38;;;;;;;3.93;1.40;;;;;;;23.42;58.36;100976.06;10486723;28;20028;-78
2022/06/25 08:13:39;;;;;;;4.10;1.50;;;;;;;23.24;58.35;100985.94;10458716;28;20040;-78
2022/06/25 08:18:40;;;;;;;3.23;1.80;;;;;;;23.67;56.69;100979.50;10444611;28;20049;-78
2022/06/25 08:23:40;;;;;;;6.00;2.33;;;;;;;22.74;58.86;100985.09;10429155;28;20044;-78
2022/06/25 08:28:42;;;;;;;4.23;1.83;;;;;;;21.37;64.25;101002.53;10482916;28;20036;-79
2022/06/25 08:33:42;;;;;;;4.78;1.88;;;;;;;21.47;66.86;101001.69;10453513;28;20044;-78
2022/06/25 08:38:43;;;;;;;11.73;2.77;;;;;;;24.51;56.22;100988.81;10485260;28;20381;-79
2022/06/25 08:43:43;;;;;;;3.63;2.27;;;;;;;24.57;55.97;100983.41;10486378;28;20506;-78
2022/06/25 08:48:44;;;;;;;9.27;2.43;;;;;;;26.31;50.75;100986.75;10485395;28;20093;-80
2022/06/25 08:53:45;;;;;;;9.00;2.23;;;;;;;26.58;50.17;100988.06;10467990;28;20041;-79
2022/06/25 08:58:45;;;;;;;3.87;1.67;;;;;;;25.44;52.09;100986.09;10451515;28;20737;-79
2022/06/25 09:03:46;;;;;;;5.63;1.77;;;;;;;24.02;54.94;100982.94;10486694;28;20116;-79
2022/06/25 09:09:06;;;;;;;3.73;1.67;;;;;;;22.58;58.95;100987.75;10484398;28;20111;-78
2022/06/25 09:14:20;;;;;;;10.18;1.70;;;;;;;22.59;60.59;100973.53;10484624;28;20043;-79
2022/06/25 09:19:31;;;;;;;5.80;2.20;;;;;;;23.84;59.00;100975.84;10483898;28;20036;-78
2022/06/25 09:24:50;;;;;;;3.23;1.87;;;;;;;24.16;55.13;100970.34;10484075;28;20025;-78
2022/06/25 09:29:51;;;;;;;4.65;1.40;;;;;;;23.86;56.26;100960.69;10485223;28;20067;-79
2022/06/25 09:34:51;;;;;;;3.20;1.13;;;;;;;24.42;53.37;100971.03;10484802;28;20037;-80
2022/06/25 09:39:53;;;;;;;5.87;1.63;;;;;;;24.37;53.18;100971.09;10465132;28;20060;-82
2022/06/25 09:45:13;;;;;;;3.83;1.48;;;;;;;23.89;55.62;100974.94;10482892;28;20182;-80
2022/06/25 09:50:15;;;;;;;4.80;1.40;;;;;;;26.18;52.24;100970.84;10484674;28;20020;-79
2022/06/25 09:55:15;;;;;;;2.85;1.23;;;;;;;26.20;47.26;100974.38;10482656;28;20528;-79
2022/06/25 10:00:16;;;;;;;9.37;1.47;;;;;;;24.37;54.35;100976.44;10465989;28;20388;-80
2022/06/25 10:05:18;;;;;;;3.30;1.47;;;;;;;22.91;58.11;100978.84;10449612;28;20029;-79
2022/06/25 10:10:19;;;;;;;3.03;1.60;;;;;;;22.46;60.61;100973.56;10465726;28;20033;-79
2022/06/25 10:15:21;;;;;;;8.25;1.65;;;;;;;22.55;62.22;100984.22;10484066;28;20111;-79
2022/06/25 10:20:23;;;;;;;4.63;1.63;;;;;;;22.77;59.78;100981.53;10482021;28;20491;-78
2022/06/25 10:25:24;;;;;;;2.63;2.13;;;;;;;23.13;58.70;100980.56;10465466;28;20039;-78
2022/06/25 10:30:49;;;;;;;5.53;1.50;;;;;;;23.82;59.93;100974.97;10482735;28;20090;-78
2022/06/25 10:35:50;;;;;;;3.10;0.90;;;;;;;24.77;55.22;100969.88;10435739;28;20037;-78
2022/06/25 10:40:55;;;;;;;1.55;0.98;;;;;;;27.09;49.80;100965.69;10464495;28;20396;-78
2022/06/25 10:45:56;;;;;;;5.45;1.60;;;;;;;25.16;49.35;100978.38;10486527;28;20089;-78
2022/06/25 10:50:56;;;;;;;3.97;1.90;;;;;;;23.73;56.46;100987.50;10483280;28;20097;-78
2022/06/25 10:55:59;;;;;;;5.47;1.50;;;;;;;22.80;61.04;100968.19;10475825;28;20025;-78
2022/06/25 11:01:03;;;;;;;3.95;1.42;;;;;;;23.06;59.88;100980.59;10493797;28;20037;-78
2022/06/25 11:06:22;;;;;;;2.90;1.05;;;;;;;24.73;56.38;100974.38;10464648;28;20040;-78
2022/06/25 11:11:32;;;;;;;5.28;1.25;;;;;;;25.99;50.70;100969.31;10511783;28;20040;-78
2022/06/25 11:16:32;;;;;;;8.45;1.13;;;;;;;26.17;51.00;100961.03;10491448;28;20040;-77
2022/06/25 11:21:35;;;;;;;5.17;1.10;;;;;;;28.45;43.05;100970.78;10384469;28;20057;-78
2022/06/25 11:31:55;;;;;;;2.80;1.17;;;;;;;26.03;50.81;100969.22;10441560;28;20057;-78
2022/06/25 11:37:00;;;;;;;2.22;1.17;;;;;;;26.51;51.31;100970.28;10430261;28;20110;-79
2022/06/25 11:42:01;;;;;;;4.50;1.55;;;;;;;26.52;51.82;100972.97;10463620;28;20460;-78
2022/06/25 11:47:02;;;;;;;2.67;1.17;;;;;;;26.58;49.66;100968.41;10429551;28;20043;-77
2022/06/25 11:52:03;;;;;;;3.90;1.20;;;;;;;28.07;49.03;100963.59;10450854;28;20484;-78
2022/06/25 11:57:04;;;;;;;;;;;;;;;27.74;44.26;100962.59;10487529;28;20071;-77
2022/06/25 12:02:05;;;;;;;5.27;1.10;;;;;;;27.37;44.57;100964.22;10488891;28;19920;-77
2022/06/25 12:07:06;;;;;;;4.53;1.43;;;;;;;25.34;51.02;100971.03;10469860;28;20032;-77
2022/06/25 12:12:06;;;;;;;3.77;2.00;;;;;;;24.39;52.08;100974.63;10487049;28;20488;-77
2022/06/25 12:17:07;;;;;;;6.13;1.83;;;;;;;24.49;52.32;100970.09;10485445;28;20032;-78
2022/06/25 12:22:20;;;;;;;3.80;1.50;;;;;;;28.78;41.59;100957.41;10488410;28;20545;-79
2022/06/25 12:27:21;;;;;;;5.68;2.30;;;;;;;29.02;45.12;100956.72;10485272;28;20082;-77
2022/06/25 12:32:41;;;;;;;4.43;1.80;;;;;;;26.75;44.92;100960.03;10485800;28;20120;-77
2022/06/25 12:37:41;;;;;;;6.55;1.63;;;;;;;27.00;46.59;100955.13;10486549;28;20033;-77
2022/06/25 12:42:52;;;;;;;5.47;2.13;;;;;;;26.10;47.32;100953.94;10484747;28;20139;-76
2022/06/25 12:47:52;;;;;;;2.65;1.45;;;;;;;27.21;45.66;100948.44;10478604;28;20042;-77
2022/06/25 12:52:53;;;;;;;5.43;2.07;;;;;;;29.51;40.81;100945.47;10473443;28;20511;-77
2022/06/25 12:57:54;;;;;;;6.95;1.58;;;;;;;30.55;41.40;100941.25;10483632;28;20066;-76
2022/06/25 13:02:54;;;;;;;4.30;1.77;;;;;;;29.68;41.09;100944.06;10517341;28;20170;-76
2022/06/25 13:07:55;;;;;;;6.40;1.73;;;;;;;27.59;46.21;100947.69;10476991;28;20075;-77
2022/06/25 13:12:55;;;;;;;3.67;1.50;;;;;;;28.21;44.07;100944.47;10466560;28;20115;-76
2022/06/25 13:17:56;;;;;;;4.10;1.60;;;;;;;30.30;37.81;100942.09;10456041;28;20127;-75
2022/06/25 13:22:56;;;;;;;3.63;3.10;;;;;;;29.44;38.14;100936.69;10441731;28;20062;-76
2022/06/25 13:27:57;;;;;;;2.87;1.60;;;;;;;27.09;43.67;100949.56;10469941;28;20185;-76
2022/06/25 13:32:57;;;;;;;2.27;2.07;;;;;;;26.80;45.00;100944.72;10471096;28;20063;-76
2022/06/25 13:37:58;;;;;;;2.53;1.50;;;;;;;27.01;47.00;100931.84;10442007;28;20037;-78
2022/06/25 13:42:58;;;;;;;4.47;1.90;;;;;;;25.76;49.57;100933.00;10451683;28;20494;-78
2022/06/25 13:47:59;;;;;;;3.57;1.30;;;;;;;24.91;52.02;100935.81;10477346;28;20048;-77
2022/06/25 13:52:59;;;;;;;7.57;2.77;;;;;;;24.03;58.83;100942.81;10477346;28;20400;-78
2022/06/25 13:58:00;;;;;;;4.70;1.73;;;;;;;23.38;57.71;100945.81;10453362;28;20037;-78
2022/06/25 14:03:01;;;;;;;3.40;1.77;;;;;;;23.16;64.87;100939.66;10483977;28;20066;-77
2022/06/25 14:08:01;;;;;;;4.30;1.43;;;;;;;23.07;65.34;100942.34;10454136;28;20083;-79
2022/06/25 14:13:02;;;;;;;5.67;1.90;;;;;;;22.92;61.11;100937.91;10480974;28;20040;-78
2022/06/25 14:18:02;;;;;;;5.77;2.03;;;;;;;22.88;59.94;100931.72;10513038;28;20059;-77
2022/06/25 14:23:03;;;;;;;6.13;2.37;;;;;;;22.91;67.49;100925.47;10501714;28;20047;-80
2022/06/25 14:28:04;;;;;;;6.97;2.03;;;;;;;23.06;62.56;100921.88;10485492;28;20048;-79
2022/06/25 14:33:05;;;;;;;3.77;1.83;;;;;;;23.50;64.04;100928.84;10441696;28;20029;-78
2022/06/25 14:43:25;;;;;;;3.90;1.70;;;;;;;25.51;53.12;100909.25;10440945;28;20064;-79
2022/06/25 14:48:25;;;;;;;5.43;1.40;;;;;;;26.07;48.70;100909.28;10457201;28;20112;-80
2022/06/25 14:53:26;;;;;;;5.03;1.47;;;;;;;26.10;48.61;100913.72;10441329;28;20061;-80
2022/06/25 14:58:26;;;;;;;3.80;1.10;;;;;;;26.02;49.27;100905.78;10474161;28;20503;-80
2022/06/25 15:03:27;;;;;;;8.73;2.17;;;;;;;26.14;50.78;100909.19;10440623;28;20068;-80
2022/06/25 15:08:28;;;;;;;8.03;2.57;;;;;;;25.87;46.71;100898.88;10449872;28;20035;-79
2022/06/25 15:13:29;;;;;;;2.87;1.60;;;;;;;25.69;48.89;100894.69;10500716;27;20047;-79
2022/06/25 15:18:29;;;;;;;16.40;7.03;;;;;;;25.69;50.87;100899.16;10462665;28;20267;-80
2022/06/25 15:23:30;;;;;;;4.13;1.53;;;;;;;25.94;50.45;100891.63;10498818;28;20507;-78
2022/06/25 15:28:30;;;;;;;5.40;2.47;;;;;;;26.16;49.49;100885.94;10488622;28;20090;-77
2022/06/25 15:33:31;;;;;;;8.50;3.67;;;;;;;25.95;48.93;100886.25;10488035;28;20051;-77
2022/06/25 15:38:32;;;;;;;4.17;2.00;;;;;;;25.48;50.28;100880.69;10463492;28;20037;-78
2022/06/25 15:43:33;;;;;;;;;;;;;;;25.39;52.72;100867.41;10469054;28;20048;-78
2022/06/25 15:48:33;;;;;;;3.83;1.50;;;;;;;25.39;51.59;100861.16;10471689;28;19920;-78
2022/06/25 15:53:34;;;;;;;4.67;2.10;;;;;;;25.77;50.83;100863.28;10446130;28;20374;-78
2022/06/25 16:03:54;;;;;;;3.70;1.60;;;;;;;26.27;47.33;100850.91;10484862;28;20049;-77
2022/06/25 16:08:54;;;;;;;3.90;1.73;;;;;;;26.10;45.75;100852.91;10487710;28;20111;-79
2022/06/25 16:13:55;;;;;;;3.50;1.27;;;;;;;25.94;47.12;100846.03;10467054;28;20079;-78
2022/06/25 16:18:56;;;;;;;2.97;1.63;;;;;;;25.36;51.72;100849.59;10485016;28;20135;-79
2022/06/25 16:23:56;;;;;;;2.77;1.90;;;;;;;25.16;49.37;100847.16;10482735;28;20116;-79
2022/06/25 16:28:58;;;;;;;3.07;1.47;;;;;;;25.07;52.61;100844.59;10483043;28;20033;-79
2022/06/25 16:33:59;;;;;;;6.82;1.55;;;;;;;25.19;52.58;100838.22;10483686;28;20449;-79
2022/06/25 16:38:59;;;;;;;5.77;2.63;;;;;;;25.17;52.18;100832.00;10481192;28;20098;-77
2022/06/25 16:44:00;;;;;;;6.47;2.43;;;;;;;24.91;52.94;100831.44;10516243;28;20119;-77
2022/06/25 16:49:05;;;;;;;2.53;1.40;;;;;;;24.44;53.57;100844.44;10478742;28;20035;-78
2022/06/25 16:54:06;;;;;;;3.35;1.48;;;;;;;24.11;53.85;100840.28;10498167;28;20041;-78
2022/06/25 16:59:06;;;;;;;3.20;1.57;;;;;;;23.95;52.98;100839.50;10471533;28;20032;-80
2022/06/25 17:04:07;;;;;;;4.07;1.87;;;;;;;24.11;53.29;100842.94;10484680;28;20043;-78
2022/06/25 17:09:07;;;;;;;3.60;1.70;;;;;;;23.88;60.00;100846.66;10458566;28;20041;-78
2022/06/25 17:14:08;;;;;;;6.37;1.33;;;;;;;23.74;54.39;100842.31;10434528;28;20377;-78
2022/06/25 17:19:08;;;;;;;4.70;1.90;;;;;;;23.64;57.71;100845.94;10440094;28;20040;-78
2022/06/25 17:24:10;;;;;;;2.43;1.37;;;;;;;23.45;58.99;100839.88;10424512;28;20033;-79
2022/06/25 17:29:10;;;;;;;5.77;2.47;;;;;;;23.43;59.68;100844.31;10437777;28;20535;-77
2022/06/25 17:34:11;;;;;;;2.13;1.10;;;;;;;23.31;57.81;100848.84;10443156;28;20315;-78
2022/06/25 17:39:11;;;;;;;3.87;2.30;;;;;;;22.96;67.49;100849.88;10424453;28;20117;-79
2022/06/25 17:44:15;;;;;;;5.63;2.03;;;;;;;22.52;69.74;100841.09;10465655;28;20064;-78
2022/06/25 17:49:20;;;;;;;4.32;2.30;;;;;;;22.36;69.88;100849.97;10483460;28;20037;-78
2022/06/25 17:54:22;;;;;;;4.65;1.75;;;;;;;22.06;71.67;100851.78;10481988;28;20462;-77
2022/06/25 17:59:23;;;;;;;;;;;;;;;21.84;71.42;100859.75;10482925;28;20408;-77
2022/06/25 18:04:24;;;;;;;5.23;2.03;;;;;;;21.74;73.31;100857.97;10480839;28;19916;-77
2022/06/25 18:09:25;;;;;;;3.53;2.53;;;;;;;21.47;76.63;100873.88;10481860;28;20677;-76
2022/06/25 18:14:26;;;;;;;6.80;2.78;;;;;;;21.18;70.30;100885.31;10481971;28;20086;-77
2022/06/25 18:19:27;;;;;;;9.43;2.60;;;;;;;20.75;72.31;100898.38;10482372;28;20082;-78
2022/06/25 18:24:27;;;;;;;7.07;3.10;;;;;;;20.23;74.01;100898.00;10482269;28;20045;-78
2022/06/25 18:29:28;;;;;;;5.05;2.65;;;;;;;19.77;75.75;100897.53;10462998;28;20037;-78
2022/06/25 18:34:28;;;;;;;5.38;2.33;;;;;;;19.36;77.82;100902.41;10482329;28;20036;-77
2022/06/25 18:39:29;;;;;;;4.93;3.38;;;;;;;19.17;79.33;100908.34;10483489;28;20116;-77
2022/06/25 18:44:30;;;;;;;6.60;3.70;;;;;;;19.03;80.08;100903.75;10492171;28;20109;-78
2022/06/25 18:49:30;;;;;;;4.63;4.10;;;;;;;18.90;81.39;100909.75;10492452;28;20055;-78
2022/06/25 18:54:31;;;;;;;7.35;6.00;;;;;;;18.69;81.74;100913.84;10490803;28;20123;-78
2022/06/25 18:59:31;;;;;;;12.27;6.55;;;;;;;18.51;84.00;100913.56;10490426;28;20039;-78
2022/06/25 19:04:32;;;;;;;13.05;6.57;;;;;;;18.30;85.41;100926.53;10489854;28;20057;-78
2022/06/25 19:09:32;;;;;;;17.13;5.93;;;;;;;18.19;85.98;100923.66;10488941;28;20388;-78
2022/06/25 19:14:33;;;;;;;11.02;6.78;;;;;;;18.16;86.09;100936.00;10472201;28;20083;-77
2022/06/25 19:19:33;;;;;;;14.32;7.40;;;;;;;18.12;87.21;100944.75;10490061;28;20045;-77
2022/06/25 19:24:34;;;;;;;10.80;7.00;;;;;;;18.02;87.98;100936.63;10472539;28;20110;-78
2022/06/25 19:29:35;;;;;;;10.30;9.10;;;;;;;17.94;89.14;100939.97;10488366;28;20422;-77
2022/06/25 19:34:35;;;;;;;10.45;8.38;;;;;;;17.87;89.85;100942.50;10489564;28;20086;-78
2022/06/25 19:39:36;;;;;;;7.72;6.90;;;;;;;17.84;91.07;100946.84;10489444;28;20217;-77
2022/06/25 19:44:36;;;;;;;8.77;7.78;;;;;;;17.87;91.05;100953.06;10488193;28;20071;-77
2022/06/25 19:49:37;;;;;;;13.43;9.55;;;;;;;17.83;91.08;100945.06;10487761;28;20540;-77
2022/06/25 19:54:38;;;;;;;15.55;10.55;;;;;;;17.52;92.01;100958.56;10469883;28;20090;-77
2022/06/25 19:59:38;;;;;;;13.80;9.77;;;;;;;17.25;93.63;100967.72;10470465;28;20400;-78
2022/06/25 20:04:39;;;;;;;13.60;9.50;;;;;;;17.10;94.41;100975.31;10487695;28;20048;-77
2022/06/25 20:09:40;;;;;;;12.30;11.02;;;;;;;17.01;95.17;100987.44;10486793;28;20400;-78
2022/06/25 20:14:42;;;;;;;13.18;10.15;;;;;;;16.97;95.86;100979.44;10486945;28;20094;-77
2022/06/25 20:19:43;;;;;;;13.45;9.85;;;;;;;16.89;96.18;100971.28;10470517;28;20036;-77
2022/06/25 20:24:44;;;;;;;12.35;9.23;;;;;;;16.81;96.26;100956.97;10487923;28;20515;-78
2022/06/25 20:29:44;;;;;;;12.43;8.82;;;;;;;16.71;96.77;100966.47;10488141;28;20041;-77
2022/06/25 20:34:44;;;;;;;13.70;10.32;;;;;;;16.62;98.80;100969.75;10487385;28;20101;-77
2022/06/25 20:39:45;;;;;;;12.15;9.50;;;;;;;16.52;99.53;100970.38;10485512;28;20040;-77
2022/06/25 20:44:46;;;;;;;17.67;9.68;;;;;;;16.43;99.65;100971.94;10485147;28;20054;-77
2022/06/25 20:49:47;;;;;;;13.30;10.98;;;;;;;16.37;99.88;100966.50;10486717;28;20090;-77
2022/06/25 20:54:50;;;;;;;21.65;11.10;;;;;;;16.23;100.00;100959.97;10484888;28;20051;-78
2022/06/25 20:59:50;;;;;;;13.23;10.70;;;;;;;16.11;100.00;100965.84;10484855;28;20079;-77
2022/06/25 21:10:10;;;;;;;17.58;13.95;;;;;;;16.06;100.00;100975.38;10478787;28;20078;-77
2022/06/25 21:15:11;;;;;;;20.70;14.60;;;;;;;16.04;100.00;100963.88;10473013;28;20115;-77
2022/06/25 21:20:11;;;;;;;16.83;14.02;;;;;;;16.00;100.00;100966.44;10475260;28;20123;-77
2022/06/25 21:25:15;;;;;;;18.25;15.88;;;;;;;15.95;100.00;100972.44;10465951;28;20033;-78
2022/06/25 21:30:16;;;;;;;18.00;14.40;;;;;;;15.92;100.00;100997.03;10461105;28;20120;-77
2022/06/25 21:35:17;;;;;;;19.00;14.77;;;;;;;15.96;100.00;101005.91;10450820;28;20037;-77
2022/06/25 21:40:17;;;;;;;18.15;13.85;;;;;;;16.05;100.00;101039.59;10483664;28;20036;-78
2022/06/25 21:45:18;;;;;;;19.52;16.27;;;;;;;16.24;100.00;101048.91;10482106;28;20107;-78
2022/06/25 21:50:20;;;;;;;15.25;12.27;;;;;;;16.35;100.00;101055.38;10457523;28;20127;-78
2022/06/25 21:55:21;;;;;;;12.23;10.18;;;;;;;16.46;98.08;101060.03;10449879;28;20072;-78
2022/06/25 22:00:22;;;;;;;11.00;9.82;;;;;;;16.47;96.50;101054.81;10470391;28;20127;-77
2022/06/25 22:05:23;;;;;;;12.57;9.40;;;;;;;16.40;94.93;101048.47;10453629;28;20037;-77
2022/06/25 22:10:24;;;;;;;16.90;10.60;;;;;;;16.33;95.41;101049.16;10483423;28;20036;-76
2022/06/25 22:15:24;;;;;;;14.40;10.82;;;;;;;16.28;96.16;101066.63;10463384;28;20041;-77
2022/06/25 22:25:46;;;;;;;12.90;11.50;;;;;;;16.22;97.33;101071.72;10464349;28;20373;-77
2022/06/25 22:30:46;;;;;;;10.93;9.70;;;;;;;16.22;97.77;101058.53;10463190;28;20556;-77
2022/06/25 22:35:47;;;;;;;14.00;10.68;;;;;;;16.17;98.40;101050.50;10460345;28;20029;-77
2022/06/25 22:40:48;;;;;;;13.38;10.25;;;;;;;16.12;98.76;101047.72;10453083;28;20059;-77
2022/06/25 22:45:48;;;;;;;18.73;16.27;;;;;;;16.05;100.00;101032.56;10465482;28;20040;-77
2022/06/25 22:50:50;;;;;;;20.70;16.13;;;;;;;15.99;100.00;101028.00;10456924;28;20147;-77
2022/06/25 22:55:51;;;;;;;18.38;13.35;;;;;;;15.94;100.00;101010.25;10452876;28;20032;-77
2022/06/25 23:00:51;;;;;;;21.92;15.55;;;;;;;15.94;100.00;100999.69;10464563;28;20045;-77
2022/06/25 23:05:52;;;;;;;13.35;10.68;;;;;;;15.87;100.00;100998.63;10461874;28;20498;-78
2022/06/25 23:10:52;;;;;;;18.27;13.32;;;;;;;15.76;100.00;100995.66;10457102;28;20072;-76
2022/06/25 23:15:53;;;;;;;16.58;13.00;;;;;;;15.67;100.00;100998.03;10455442;28;20037;-77
2022/06/25 23:20:54;;;;;;;18.08;14.00;;;;;;;15.67;100.00;101019.13;10442913;28;20045;-76
2022/06/25 23:25:54;;;;;;;20.17;14.95;;;;;;;15.69;100.00;101026.25;10470064;27;20037;-77